sensor_id;sensor_type;location;lat;lon;timestamp;P1;durP1;ratioP1;P2;durP2;ratioP2
71910;SDS011;59783;52.232;5.170;2023-03-12T00:01:45;28.70;;;25.77;;
71910;SDS011;59783;52.232;5.170;2023-03-12T00:04:10;29.33;;;24.70;;
71910;SDS011;59783;52.232;5.170;2023-03-12T00:06:35;27.20;;;24.30;;
71910;SDS011;59783;52.232;5.170;2023-03-12T00:09:01;30.08;;;26.95;;
71910;SDS011;59783;52.232;5.170;2023-03-12T00:11:27;27.15;;;24.23;;
71910;SDS011;59783;52.232;5.170;2023-03-12T00:13:54;28.55;;;25.60;;
71910;SDS011;59783;52.232;5.170;2023-03-12T00:16:22;32.70;;;23.92;;
71910;SDS011;59783;52.232;5.170;2023-03-12T00:18:48;28.75;;;25.30;;
71910;SDS011;59783;52.232;5.170;2023-03-12T00:21:13;27.77;;;25.02;;
71910;SDS011;59783;52.232;5.170;2023-03-12T00:23:39;25.77;;;23.20;;
71910;SDS011;59783;52.232;5.170;2023-03-12T00:26:05;29.25;;;25.02;;
71910;SDS011;59783;52.232;5.170;2023-03-12T00:28:31;24.80;;;22.35;;
71910;SDS011;59783;52.232;5.170;2023-03-12T00:30:56;24.40;;;21.80;;
71910;SDS011;59783;52.232;5.170;2023-03-12T00:33:22;25.50;;;22.02;;
71910;SDS011;59783;52.232;5.170;2023-03-12T00:35:47;26.30;;;23.58;;
71910;SDS011;59783;52.232;5.170;2023-03-12T00:38:13;29.13;;;26.05;;
71910;SDS011;59783;52.232;5.170;2023-03-12T00:40:38;26.03;;;23.23;;
71910;SDS011;59783;52.232;5.170;2023-03-12T00:43:03;32.63;;;26.37;;
71910;SDS011;59783;52.232;5.170;2023-03-12T00:45:28;25.13;;;22.63;;
71910;SDS011;59783;52.232;5.170;2023-03-12T00:47:54;26.63;;;24.03;;
71910;SDS011;59783;52.232;5.170;2023-03-12T00:50:19;24.92;;;22.35;;
71910;SDS011;59783;52.232;5.170;2023-03-12T00:52:44;24.37;;;21.83;;
71910;SDS011;59783;52.232;5.170;2023-03-12T00:55:09;25.57;;;22.10;;
71910;SDS011;59783;52.232;5.170;2023-03-12T00:57:34;30.53;;;22.87;;
71910;SDS011;59783;52.232;5.170;2023-03-12T01:00:00;26.30;;;23.50;;
71910;SDS011;59783;52.232;5.170;2023-03-12T01:02:25;27.27;;;24.30;;
71910;SDS011;59783;52.232;5.170;2023-03-12T01:04:50;27.53;;;24.50;;
71910;SDS011;59783;52.232;5.170;2023-03-12T01:07:15;27.00;;;23.33;;
71910;SDS011;59783;52.232;5.170;2023-03-12T01:09:40;27.30;;;24.50;;
71910;SDS011;59783;52.232;5.170;2023-03-12T01:12:06;30.13;;;25.80;;
71910;SDS011;59783;52.232;5.170;2023-03-12T01:14:31;30.20;;;26.13;;
71910;SDS011;59783;52.232;5.170;2023-03-12T01:16:56;28.63;;;24.97;;
71910;SDS011;59783;52.232;5.170;2023-03-12T01:19:21;30.23;;;27.07;;
71910;SDS011;59783;52.232;5.170;2023-03-12T01:21:47;27.97;;;24.97;;
71910;SDS011;59783;52.232;5.170;2023-03-12T01:24:12;29.23;;;26.30;;
71910;SDS011;59783;52.232;5.170;2023-03-12T01:26:37;27.70;;;24.67;;
71910;SDS011;59783;52.232;5.170;2023-03-12T01:29:02;28.47;;;25.40;;
71910;SDS011;59783;52.232;5.170;2023-03-12T01:31:27;28.90;;;26.00;;
71910;SDS011;59783;52.232;5.170;2023-03-12T01:33:53;28.13;;;25.23;;
71910;SDS011;59783;52.232;5.170;2023-03-12T01:36:19;28.42;;;25.52;;
71910;SDS011;59783;52.232;5.170;2023-03-12T01:38:44;29.63;;;26.63;;
71910;SDS011;59783;52.232;5.170;2023-03-12T01:41:10;30.50;;;27.58;;
71910;SDS011;59783;52.232;5.170;2023-03-12T01:43:36;27.40;;;24.70;;
71910;SDS011;59783;52.232;5.170;2023-03-12T01:50:55;26.98;;;24.30;;
71910;SDS011;59783;52.232;5.170;2023-03-12T01:53:20;27.37;;;24.17;;
71910;SDS011;59783;52.232;5.170;2023-03-12T01:55:46;31.60;;;23.88;;
71910;SDS011;59783;52.232;5.170;2023-03-12T01:58:11;31.05;;;27.38;;
71910;SDS011;59783;52.232;5.170;2023-03-12T02:00:37;29.15;;;26.33;;
71910;SDS011;59783;52.232;5.170;2023-03-12T02:03:03;25.33;;;22.30;;
71910;SDS011;59783;52.232;5.170;2023-03-12T02:07:58;28.75;;;25.83;;
71910;SDS011;59783;52.232;5.170;2023-03-12T02:10:23;25.70;;;23.20;;
71910;SDS011;59783;52.232;5.170;2023-03-12T02:12:49;27.55;;;24.65;;
71910;SDS011;59783;52.232;5.170;2023-03-12T02:15:14;27.15;;;24.27;;
71910;SDS011;59783;52.232;5.170;2023-03-12T02:17:39;26.73;;;23.93;;
71910;SDS011;59783;52.232;5.170;2023-03-12T02:20:22;28.20;;;25.33;;
71910;SDS011;59783;52.232;5.170;2023-03-12T02:23:09;28.35;;;24.85;;
71910;SDS011;59783;52.232;5.170;2023-03-12T02:25:40;32.15;;;29.02;;
71910;SDS011;59783;52.232;5.170;2023-03-12T02:28:08;29.85;;;25.55;;
71910;SDS011;59783;52.232;5.170;2023-03-12T02:30:33;25.88;;;23.15;;
71910;SDS011;59783;52.232;5.170;2023-03-12T02:33:00;27.73;;;24.45;;
71910;SDS011;59783;52.232;5.170;2023-03-12T02:35:26;26.67;;;23.85;;
71910;SDS011;59783;52.232;5.170;2023-03-12T02:37:54;26.27;;;23.53;;
71910;SDS011;59783;52.232;5.170;2023-03-12T02:42:57;26.38;;;23.88;;
71910;SDS011;59783;52.232;5.170;2023-03-12T02:45:23;28.67;;;24.43;;
71910;SDS011;59783;52.232;5.170;2023-03-12T02:47:48;25.25;;;22.67;;
71910;SDS011;59783;52.232;5.170;2023-03-12T02:50:14;26.20;;;23.47;;
71910;SDS011;59783;52.232;5.170;2023-03-12T02:52:39;28.08;;;23.20;;
71910;SDS011;59783;52.232;5.170;2023-03-12T02:55:05;27.47;;;24.83;;
71910;SDS011;59783;52.232;5.170;2023-03-12T02:57:31;26.52;;;23.92;;
71910;SDS011;59783;52.232;5.170;2023-03-12T02:59:56;26.33;;;23.73;;
71910;SDS011;59783;52.232;5.170;2023-03-12T03:02:22;28.63;;;25.93;;
71910;SDS011;59783;52.232;5.170;2023-03-12T03:04:48;29.02;;;26.27;;
71910;SDS011;59783;52.232;5.170;2023-03-12T03:07:13;27.33;;;24.53;;
71910;SDS011;59783;52.232;5.170;2023-03-12T03:09:38;27.50;;;24.67;;
71910;SDS011;59783;52.232;5.170;2023-03-12T03:12:04;27.08;;;24.42;;
71910;SDS011;59783;52.232;5.170;2023-03-12T03:14:29;25.90;;;22.38;;
71910;SDS011;59783;52.232;5.170;2023-03-12T03:16:54;28.60;;;25.57;;
71910;SDS011;59783;52.232;5.170;2023-03-12T03:19:19;26.80;;;23.37;;
71910;SDS011;59783;52.232;5.170;2023-03-12T03:21:44;24.83;;;22.43;;
71910;SDS011;59783;52.232;5.170;2023-03-12T03:24:10;28.08;;;24.58;;
71910;SDS011;59783;52.232;5.170;2023-03-12T03:26:35;26.87;;;23.77;;
71910;SDS011;59783;52.232;5.170;2023-03-12T03:29:00;25.00;;;22.50;;
71910;SDS011;59783;52.232;5.170;2023-03-12T03:31:26;27.55;;;23.88;;
71910;SDS011;59783;52.232;5.170;2023-03-12T03:33:51;27.60;;;25.00;;
71910;SDS011;59783;52.232;5.170;2023-03-12T03:36:16;28.83;;;26.00;;
71910;SDS011;59783;52.232;5.170;2023-03-12T03:38:43;25.83;;;23.27;;
71910;SDS011;59783;52.232;5.170;2023-03-12T03:41:13;26.80;;;24.10;;
71910;SDS011;59783;52.232;5.170;2023-03-12T03:43:38;25.70;;;23.08;;
71910;SDS011;59783;52.232;5.170;2023-03-12T03:46:04;24.97;;;22.40;;
71910;SDS011;59783;52.232;5.170;2023-03-12T03:48:29;26.35;;;23.55;;
71910;SDS011;59783;52.232;5.170;2023-03-12T03:50:58;27.03;;;24.27;;
71910;SDS011;59783;52.232;5.170;2023-03-12T03:53:23;25.48;;;23.08;;
71910;SDS011;59783;52.232;5.170;2023-03-12T03:55:49;25.83;;;23.07;;
71910;SDS011;59783;52.232;5.170;2023-03-12T03:58:14;26.30;;;22.80;;
71910;SDS011;59783;52.232;5.170;2023-03-12T04:00:39;24.52;;;21.98;;
71910;SDS011;59783;52.232;5.170;2023-03-12T04:03:04;24.50;;;21.97;;
71910;SDS011;59783;52.232;5.170;2023-03-12T04:05:30;25.53;;;21.50;;
71910;SDS011;59783;52.232;5.170;2023-03-12T04:07:55;25.15;;;22.48;;
71910;SDS011;59783;52.232;5.170;2023-03-12T04:10:22;24.70;;;22.20;;
71910;SDS011;59783;52.232;5.170;2023-03-12T04:12:47;22.52;;;20.33;;
71910;SDS011;59783;52.232;5.170;2023-03-12T04:15:13;24.13;;;21.77;;
71910;SDS011;59783;52.232;5.170;2023-03-12T04:17:38;23.87;;;21.50;;
71910;SDS011;59783;52.232;5.170;2023-03-12T04:20:03;21.90;;;19.70;;
71910;SDS011;59783;52.232;5.170;2023-03-12T04:22:32;25.67;;;22.65;;
71910;SDS011;59783;52.232;5.170;2023-03-12T04:24:57;27.57;;;23.57;;
71910;SDS011;59783;52.232;5.170;2023-03-12T04:27:22;27.47;;;22.00;;
71910;SDS011;59783;52.232;5.170;2023-03-12T04:29:48;26.43;;;23.80;;
71910;SDS011;59783;52.232;5.170;2023-03-12T04:32:13;26.93;;;24.43;;
71910;SDS011;59783;52.232;5.170;2023-03-12T04:34:38;27.47;;;24.83;;
71910;SDS011;59783;52.232;5.170;2023-03-12T04:37:03;26.87;;;24.23;;
71910;SDS011;59783;52.232;5.170;2023-03-12T04:39:28;26.33;;;23.83;;
71910;SDS011;59783;52.232;5.170;2023-03-12T04:41:53;24.97;;;22.30;;
71910;SDS011;59783;52.232;5.170;2023-03-12T04:44:19;25.00;;;22.53;;
71910;SDS011;59783;52.232;5.170;2023-03-12T04:46:44;27.10;;;24.60;;
71910;SDS011;59783;52.232;5.170;2023-03-12T04:49:09;28.13;;;25.20;;
71910;SDS011;59783;52.232;5.170;2023-03-12T04:51:34;25.40;;;23.00;;
71910;SDS011;59783;52.232;5.170;2023-03-12T04:53:59;27.60;;;24.97;;
71910;SDS011;59783;52.232;5.170;2023-03-12T04:56:25;27.80;;;25.30;;
71910;SDS011;59783;52.232;5.170;2023-03-12T04:58:50;24.57;;;21.97;;
71910;SDS011;59783;52.232;5.170;2023-03-12T05:01:26;24.13;;;21.63;;
71910;SDS011;59783;52.232;5.170;2023-03-12T05:03:53;24.98;;;22.48;;
71910;SDS011;59783;52.232;5.170;2023-03-12T05:06:18;26.13;;;23.45;;
71910;SDS011;59783;52.232;5.170;2023-03-12T05:08:44;24.17;;;21.80;;
71910;SDS011;59783;52.232;5.170;2023-03-12T05:11:09;26.52;;;23.92;;
71910;SDS011;59783;52.232;5.170;2023-03-12T05:13:34;24.37;;;21.83;;
71910;SDS011;59783;52.232;5.170;2023-03-12T05:15:59;27.10;;;24.17;;
71910;SDS011;59783;52.232;5.170;2023-03-12T05:18:25;24.77;;;22.33;;
71910;SDS011;59783;52.232;5.170;2023-03-12T05:20:57;27.75;;;25.00;;
71910;SDS011;59783;52.232;5.170;2023-03-12T05:23:23;28.05;;;25.35;;
71910;SDS011;59783;52.232;5.170;2023-03-12T05:25:48;26.90;;;24.20;;
71910;SDS011;59783;52.232;5.170;2023-03-12T05:28:13;25.17;;;22.67;;
71910;SDS011;59783;52.232;5.170;2023-03-12T05:30:38;27.67;;;24.80;;
71910;SDS011;59783;52.232;5.170;2023-03-12T05:33:03;27.17;;;24.50;;
71910;SDS011;59783;52.232;5.170;2023-03-12T05:35:29;26.40;;;23.77;;
71910;SDS011;59783;52.232;5.170;2023-03-12T05:37:54;28.27;;;25.43;;
71910;SDS011;59783;52.232;5.170;2023-03-12T05:40:19;26.67;;;23.07;;
71910;SDS011;59783;52.232;5.170;2023-03-12T05:42:44;27.10;;;24.40;;
71910;SDS011;59783;52.232;5.170;2023-03-12T05:45:09;27.27;;;24.37;;
71910;SDS011;59783;52.232;5.170;2023-03-12T05:47:35;24.67;;;22.10;;
71910;SDS011;59783;52.232;5.170;2023-03-12T05:50:00;31.67;;;23.73;;
71910;SDS011;59783;52.232;5.170;2023-03-12T05:52:25;28.43;;;23.47;;
71910;SDS011;59783;52.232;5.170;2023-03-12T05:54:51;25.20;;;22.57;;
71910;SDS011;59783;52.232;5.170;2023-03-12T05:57:16;26.58;;;23.75;;
71910;SDS011;59783;52.232;5.170;2023-03-12T05:59:41;25.43;;;22.80;;
71910;SDS011;59783;52.232;5.170;2023-03-12T06:02:06;25.47;;;23.07;;
71910;SDS011;59783;52.232;5.170;2023-03-12T06:04:32;25.90;;;23.40;;
71910;SDS011;59783;52.232;5.170;2023-03-12T06:06:57;25.27;;;22.63;;
71910;SDS011;59783;52.232;5.170;2023-03-12T06:09:22;29.10;;;26.30;;
71910;SDS011;59783;52.232;5.170;2023-03-12T06:11:47;27.60;;;25.00;;
71910;SDS011;59783;52.232;5.170;2023-03-12T06:14:13;24.63;;;22.20;;
71910;SDS011;59783;52.232;5.170;2023-03-12T06:16:38;25.30;;;22.85;;
71910;SDS011;59783;52.232;5.170;2023-03-12T06:19:04;25.77;;;23.17;;
71910;SDS011;59783;52.232;5.170;2023-03-12T06:21:30;26.77;;;24.02;;
71910;SDS011;59783;52.232;5.170;2023-03-12T06:23:55;28.88;;;25.98;;
71910;SDS011;59783;52.232;5.170;2023-03-12T06:26:21;27.83;;;25.00;;
71910;SDS011;59783;52.232;5.170;2023-03-12T06:28:47;26.50;;;23.80;;
71910;SDS011;59783;52.232;5.170;2023-03-12T06:31:12;27.10;;;23.13;;
71910;SDS011;59783;52.232;5.170;2023-03-12T06:33:37;28.70;;;25.80;;
71910;SDS011;59783;52.232;5.170;2023-03-12T06:36:04;27.35;;;24.48;;
71910;SDS011;59783;52.232;5.170;2023-03-12T06:38:29;27.15;;;24.33;;
71910;SDS011;59783;52.232;5.170;2023-03-12T06:40:59;30.77;;;23.00;;
71910;SDS011;59783;52.232;5.170;2023-03-12T06:43:25;25.98;;;23.30;;
71910;SDS011;59783;52.232;5.170;2023-03-12T06:45:50;29.88;;;22.60;;
71910;SDS011;59783;52.232;5.170;2023-03-12T06:48:15;32.93;;;23.90;;
71910;SDS011;59783;52.232;5.170;2023-03-12T06:50:40;27.87;;;24.50;;
71910;SDS011;59783;52.232;5.170;2023-03-12T06:53:05;27.43;;;24.73;;
71910;SDS011;59783;52.232;5.170;2023-03-12T06:55:31;27.83;;;23.70;;
71910;SDS011;59783;52.232;5.170;2023-03-12T06:57:56;28.17;;;25.37;;
71910;SDS011;59783;52.232;5.170;2023-03-12T07:00:21;26.77;;;22.83;;
71910;SDS011;59783;52.232;5.170;2023-03-12T07:02:46;29.10;;;24.27;;
71910;SDS011;59783;52.232;5.170;2023-03-12T07:05:11;32.40;;;25.50;;
71910;SDS011;59783;52.232;5.170;2023-03-12T07:07:37;30.75;;;24.75;;
71910;SDS011;59783;52.232;5.170;2023-03-12T07:10:03;34.08;;;30.77;;
71910;SDS011;59783;52.232;5.170;2023-03-12T07:12:29;31.52;;;27.40;;
71910;SDS011;59783;52.232;5.170;2023-03-12T07:14:54;30.17;;;26.33;;
71910;SDS011;59783;52.232;5.170;2023-03-12T07:17:20;28.40;;;24.90;;
71910;SDS011;59783;52.232;5.170;2023-03-12T07:19:47;28.65;;;25.77;;
71910;SDS011;59783;52.232;5.170;2023-03-12T07:22:12;31.17;;;25.07;;
71910;SDS011;59783;52.232;5.170;2023-03-12T07:24:37;29.43;;;25.47;;
71910;SDS011;59783;52.232;5.170;2023-03-12T07:27:02;29.00;;;26.10;;
71910;SDS011;59783;52.232;5.170;2023-03-12T07:29:28;29.35;;;26.30;;
71910;SDS011;59783;52.232;5.170;2023-03-12T07:31:53;30.33;;;26.30;;
71910;SDS011;59783;52.232;5.170;2023-03-12T07:34:18;31.97;;;26.10;;
71910;SDS011;59783;52.232;5.170;2023-03-12T07:36:43;30.30;;;23.93;;
71910;SDS011;59783;52.232;5.170;2023-03-12T07:39:08;33.87;;;24.93;;
71910;SDS011;59783;52.232;5.170;2023-03-12T07:41:34;30.50;;;27.37;;
71910;SDS011;59783;52.232;5.170;2023-03-12T07:44:01;28.30;;;25.23;;
71910;SDS011;59783;52.232;5.170;2023-03-12T07:46:26;29.43;;;24.10;;
71910;SDS011;59783;52.232;5.170;2023-03-12T07:48:51;30.67;;;26.33;;
71910;SDS011;59783;52.232;5.170;2023-03-12T07:51:16;32.33;;;26.77;;
71910;SDS011;59783;52.232;5.170;2023-03-12T07:53:41;33.20;;;25.33;;
71910;SDS011;59783;52.232;5.170;2023-03-12T07:56:07;33.63;;;27.90;;
71910;SDS011;59783;52.232;5.170;2023-03-12T07:58:32;36.77;;;29.07;;
71910;SDS011;59783;52.232;5.170;2023-03-12T08:01:00;32.78;;;24.55;;
71910;SDS011;59783;52.232;5.170;2023-03-12T08:03:25;35.60;;;28.53;;
71910;SDS011;59783;52.232;5.170;2023-03-12T08:06:00;34.30;;;27.53;;
71910;SDS011;59783;52.232;5.170;2023-03-12T08:08:26;32.28;;;27.35;;
71910;SDS011;59783;52.232;5.170;2023-03-12T08:10:52;33.42;;;25.90;;
71910;SDS011;59783;52.232;5.170;2023-03-12T08:13:17;35.75;;;28.20;;
71910;SDS011;59783;52.232;5.170;2023-03-12T08:15:43;42.73;;;29.90;;
71910;SDS011;59783;52.232;5.170;2023-03-12T08:18:08;34.40;;;28.40;;
71910;SDS011;59783;52.232;5.170;2023-03-12T08:20:33;39.03;;;28.87;;
71910;SDS011;59783;52.232;5.170;2023-03-12T08:22:58;34.27;;;29.17;;
71910;SDS011;59783;52.232;5.170;2023-03-12T08:25:23;35.37;;;26.73;;
71910;SDS011;59783;52.232;5.170;2023-03-12T08:27:49;37.20;;;27.93;;
71910;SDS011;59783;52.232;5.170;2023-03-12T08:30:14;38.33;;;31.47;;
71910;SDS011;59783;52.232;5.170;2023-03-12T08:32:39;36.33;;;27.20;;
71910;SDS011;59783;52.232;5.170;2023-03-12T08:35:04;34.60;;;26.50;;
71910;SDS011;59783;52.232;5.170;2023-03-12T08:37:30;36.65;;;27.42;;
71910;SDS011;59783;52.232;5.170;2023-03-12T08:39:55;36.97;;;29.10;;
71910;SDS011;59783;52.232;5.170;2023-03-12T08:42:21;43.58;;;28.95;;
71910;SDS011;59783;52.232;5.170;2023-03-12T08:44:47;41.20;;;27.53;;
71910;SDS011;59783;52.232;5.170;2023-03-12T08:47:12;40.57;;;29.23;;
71910;SDS011;59783;52.232;5.170;2023-03-12T08:49:37;40.43;;;30.30;;
71910;SDS011;59783;52.232;5.170;2023-03-12T08:52:02;37.83;;;30.67;;
71910;SDS011;59783;52.232;5.170;2023-03-12T08:54:27;39.72;;;30.38;;
71910;SDS011;59783;52.232;5.170;2023-03-12T08:56:53;36.03;;;30.03;;
71910;SDS011;59783;52.232;5.170;2023-03-12T08:59:18;44.07;;;31.50;;
71910;SDS011;59783;52.232;5.170;2023-03-12T09:01:47;46.67;;;31.48;;
71910;SDS011;59783;52.232;5.170;2023-03-12T09:04:12;41.97;;;31.20;;
71910;SDS011;59783;52.232;5.170;2023-03-12T09:06:37;42.53;;;29.87;;
71910;SDS011;59783;52.232;5.170;2023-03-12T09:09:03;46.57;;;33.47;;
71910;SDS011;59783;52.232;5.170;2023-03-12T09:11:29;43.78;;;30.25;;
71910;SDS011;59783;52.232;5.170;2023-03-12T09:13:54;52.85;;;32.60;;
71910;SDS011;59783;52.232;5.170;2023-03-12T09:16:20;46.13;;;32.10;;
71910;SDS011;59783;52.232;5.170;2023-03-12T09:18:45;50.90;;;31.73;;
71910;SDS011;59783;52.232;5.170;2023-03-12T09:21:10;56.20;;;33.37;;
71910;SDS011;59783;52.232;5.170;2023-03-12T09:23:35;50.57;;;31.17;;
71910;SDS011;59783;52.232;5.170;2023-03-12T09:26:00;54.60;;;37.00;;
71910;SDS011;59783;52.232;5.170;2023-03-12T09:28:26;52.37;;;34.20;;
71910;SDS011;59783;52.232;5.170;2023-03-12T09:30:51;54.43;;;32.90;;
71910;SDS011;59783;52.232;5.170;2023-03-12T09:33:16;55.50;;;33.67;;
71910;SDS011;59783;52.232;5.170;2023-03-12T09:35:42;58.13;;;32.47;;
71910;SDS011;59783;52.232;5.170;2023-03-12T09:38:10;59.22;;;33.90;;
71910;SDS011;59783;52.232;5.170;2023-03-12T09:40:36;60.45;;;33.28;;
71910;SDS011;59783;52.232;5.170;2023-03-12T09:43:12;55.17;;;34.08;;
71910;SDS011;59783;52.232;5.170;2023-03-12T09:45:43;64.95;;;34.47;;
71910;SDS011;59783;52.232;5.170;2023-03-12T09:48:15;64.28;;;32.33;;
71910;SDS011;59783;52.232;5.170;2023-03-12T09:50:42;61.55;;;33.33;;
71910;SDS011;59783;52.232;5.170;2023-03-12T09:53:09;78.07;;;39.47;;
71910;SDS011;59783;52.232;5.170;2023-03-12T09:55:36;55.65;;;33.15;;
71910;SDS011;59783;52.232;5.170;2023-03-12T09:58:02;72.75;;;36.25;;
71910;SDS011;59783;52.232;5.170;2023-03-12T10:00:32;72.53;;;34.93;;
71910;SDS011;59783;52.232;5.170;2023-03-12T10:03:04;66.47;;;35.67;;
71910;SDS011;59783;52.232;5.170;2023-03-12T10:13:13;80.47;;;34.40;;
71910;SDS011;59783;52.232;5.170;2023-03-12T10:26:21;73.60;;;36.13;;
71910;SDS011;59783;52.232;5.170;2023-03-12T10:33:45;67.90;;;32.90;;
71910;SDS011;59783;52.232;5.170;2023-03-12T10:36:14;72.75;;;34.60;;
71910;SDS011;59783;52.232;5.170;2023-03-12T10:38:39;82.10;;;36.55;;
71910;SDS011;59783;52.232;5.170;2023-03-12T10:41:16;73.97;;;37.53;;
71910;SDS011;59783;52.232;5.170;2023-03-12T10:43:42;79.10;;;34.55;;
71910;SDS011;59783;52.232;5.170;2023-03-12T10:48:38;72.47;;;38.60;;
71910;SDS011;59783;52.232;5.170;2023-03-12T10:51:08;67.63;;;36.70;;
71910;SDS011;59783;52.232;5.170;2023-03-12T10:53:44;78.78;;;35.90;;
71910;SDS011;59783;52.232;5.170;2023-03-12T10:56:16;75.75;;;37.45;;
71910;SDS011;59783;52.232;5.170;2023-03-12T10:58:48;74.85;;;37.90;;
71910;SDS011;59783;52.232;5.170;2023-03-12T11:03:39;65.70;;;37.17;;
71910;SDS011;59783;52.232;5.170;2023-03-12T11:06:04;67.40;;;33.63;;
71910;SDS011;59783;52.232;5.170;2023-03-12T11:08:32;68.90;;;38.33;;
71910;SDS011;59783;52.232;5.170;2023-03-12T11:10:58;63.00;;;32.75;;
71910;SDS011;59783;52.232;5.170;2023-03-12T11:15:52;65.70;;;34.88;;
71910;SDS011;59783;52.232;5.170;2023-03-12T11:23:39;66.07;;;32.47;;
71910;SDS011;59783;52.232;5.170;2023-03-12T11:26:17;60.33;;;31.73;;
71910;SDS011;59783;52.232;5.170;2023-03-12T11:28:45;60.90;;;34.25;;
71910;SDS011;59783;52.232;5.170;2023-03-12T11:31:24;64.65;;;30.60;;
71910;SDS011;59783;52.232;5.170;2023-03-12T11:36:19;48.28;;;28.80;;
71910;SDS011;59783;52.232;5.170;2023-03-12T11:38:49;58.92;;;28.55;;
71910;SDS011;59783;52.232;5.170;2023-03-12T11:51:20;50.63;;;28.20;;
71910;SDS011;59783;52.232;5.170;2023-03-12T11:56:54;55.40;;;29.63;;
71910;SDS011;59783;52.232;5.170;2023-03-12T11:59:31;67.88;;;29.58;;
71910;SDS011;59783;52.232;5.170;2023-03-12T12:02:03;58.72;;;29.02;;
71910;SDS011;59783;52.232;5.170;2023-03-12T12:09:38;59.63;;;28.15;;
71910;SDS011;59783;52.232;5.170;2023-03-12T12:14:37;53.97;;;27.50;;
71910;SDS011;59783;52.232;5.170;2023-03-12T12:17:07;47.78;;;26.13;;
71910;SDS011;59783;52.232;5.170;2023-03-12T12:27:28;57.53;;;24.08;;
71910;SDS011;59783;52.232;5.170;2023-03-12T12:35:05;58.80;;;29.08;;
71910;SDS011;59783;52.232;5.170;2023-03-12T12:37:38;56.47;;;26.60;;
71910;SDS011;59783;52.232;5.170;2023-03-12T12:47:58;55.90;;;24.30;;
71910;SDS011;59783;52.232;5.170;2023-03-12T12:50:25;51.85;;;25.10;;
71910;SDS011;59783;52.232;5.170;2023-03-12T12:52:53;49.35;;;25.02;;
71910;SDS011;59783;52.232;5.170;2023-03-12T12:57:46;51.75;;;24.75;;
71910;SDS011;59783;52.232;5.170;2023-03-12T13:02:39;54.08;;;26.80;;
71910;SDS011;59783;52.232;5.170;2023-03-12T13:05:52;52.08;;;26.63;;
71910;SDS011;59783;52.232;5.170;2023-03-12T13:07:53;55.83;;;25.45;;
71910;SDS011;59783;52.232;5.170;2023-03-12T13:10:36;56.33;;;27.63;;
71910;SDS011;59783;52.232;5.170;2023-03-12T13:13:03;49.80;;;25.08;;
71910;SDS011;59783;52.232;5.170;2023-03-12T13:20:19;59.90;;;23.92;;
71910;SDS011;59783;52.232;5.170;2023-03-12T13:22:58;44.42;;;21.85;;
71910;SDS011;59783;52.232;5.170;2023-03-12T13:33:40;47.30;;;22.60;;
71910;SDS011;59783;52.232;5.170;2023-03-12T13:38:38;43.50;;;24.75;;
71910;SDS011;59783;52.232;5.170;2023-03-12T13:41:15;44.92;;;24.55;;
71910;SDS011;59783;52.232;5.170;2023-03-12T13:43:53;45.10;;;23.73;;
71910;SDS011;59783;52.232;5.170;2023-03-12T13:46:25;44.03;;;25.88;;
71910;SDS011;59783;52.232;5.170;2023-03-12T13:48:51;54.22;;;25.55;;
71910;SDS011;59783;52.232;5.170;2023-03-12T13:51:22;43.78;;;25.25;;
71910;SDS011;59783;52.232;5.170;2023-03-12T13:53:49;53.08;;;24.50;;
71910;SDS011;59783;52.232;5.170;2023-03-12T13:56:17;52.90;;;27.67;;
71910;SDS011;59783;52.232;5.170;2023-03-12T13:58:47;48.08;;;24.45;;
71910;SDS011;59783;52.232;5.170;2023-03-12T14:01:14;59.40;;;29.50;;
71910;SDS011;59783;52.232;5.170;2023-03-12T14:03:52;35.53;;;23.45;;
71910;SDS011;59783;52.232;5.170;2023-03-12T14:06:19;39.08;;;23.40;;
71910;SDS011;59783;52.232;5.170;2023-03-12T14:18:58;31.83;;;22.08;;
71910;SDS011;59783;52.232;5.170;2023-03-12T14:21:23;43.92;;;24.73;;
71910;SDS011;59783;52.232;5.170;2023-03-12T14:26:32;38.20;;;21.35;;
71910;SDS011;59783;52.232;5.170;2023-03-12T14:31:42;38.53;;;21.95;;
71910;SDS011;59783;52.232;5.170;2023-03-12T14:34:17;34.60;;;21.42;;
71910;SDS011;59783;52.232;5.170;2023-03-12T14:41:44;34.07;;;22.17;;
71910;SDS011;59783;52.232;5.170;2023-03-12T14:44:22;40.95;;;21.60;;
71910;SDS011;59783;52.232;5.170;2023-03-12T14:46:57;34.63;;;21.60;;
71910;SDS011;59783;52.232;5.170;2023-03-12T14:49:23;38.28;;;23.73;;
71910;SDS011;59783;52.232;5.170;2023-03-12T14:51:48;35.78;;;22.38;;
71910;SDS011;59783;52.232;5.170;2023-03-12T14:54:15;34.78;;;21.27;;
71910;SDS011;59783;52.232;5.170;2023-03-12T14:56:40;33.72;;;23.08;;
71910;SDS011;59783;52.232;5.170;2023-03-12T14:59:21;38.88;;;19.58;;
71910;SDS011;59783;52.232;5.170;2023-03-12T15:01:47;40.13;;;23.17;;
71910;SDS011;59783;52.232;5.170;2023-03-12T15:04:13;34.30;;;21.15;;
71910;SDS011;59783;52.232;5.170;2023-03-12T15:06:44;34.53;;;20.70;;
71910;SDS011;59783;52.232;5.170;2023-03-12T15:09:13;34.90;;;21.92;;
71910;SDS011;59783;52.232;5.170;2023-03-12T15:11:40;37.38;;;20.67;;
71910;SDS011;59783;52.232;5.170;2023-03-12T15:14:11;37.47;;;21.90;;
71910;SDS011;59783;52.232;5.170;2023-03-12T15:16:38;34.92;;;20.80;;
71910;SDS011;59783;52.232;5.170;2023-03-12T15:19:03;33.78;;;21.13;;
71910;SDS011;59783;52.232;5.170;2023-03-12T15:21:31;42.83;;;20.58;;
71910;SDS011;59783;52.232;5.170;2023-03-12T15:23:56;36.35;;;23.42;;
71910;SDS011;59783;52.232;5.170;2023-03-12T15:28:53;36.45;;;21.75;;
71910;SDS011;59783;52.232;5.170;2023-03-12T15:31:19;37.58;;;20.75;;
71910;SDS011;59783;52.232;5.170;2023-03-12T15:33:44;39.10;;;25.20;;
71910;SDS011;59783;52.232;5.170;2023-03-12T15:41:36;40.40;;;21.17;;
71910;SDS011;59783;52.232;5.170;2023-03-12T15:44:04;38.33;;;22.30;;
71910;SDS011;59783;52.232;5.170;2023-03-12T15:46:29;39.55;;;21.65;;
71910;SDS011;59783;52.232;5.170;2023-03-12T15:48:55;38.37;;;22.93;;
71910;SDS011;59783;52.232;5.170;2023-03-12T15:54:26;35.38;;;23.35;;
71910;SDS011;59783;52.232;5.170;2023-03-12T15:56:43;38.38;;;21.77;;
71910;SDS011;59783;52.232;5.170;2023-03-12T16:01:44;37.63;;;23.25;;
71910;SDS011;59783;52.232;5.170;2023-03-12T16:04:09;37.17;;;21.52;;
71910;SDS011;59783;52.232;5.170;2023-03-12T16:06:34;42.50;;;21.53;;
71910;SDS011;59783;52.232;5.170;2023-03-12T16:09:01;38.50;;;20.65;;
71910;SDS011;59783;52.232;5.170;2023-03-12T16:11:30;44.35;;;23.13;;
71910;SDS011;59783;52.232;5.170;2023-03-12T16:13:59;42.90;;;20.33;;
71910;SDS011;59783;52.232;5.170;2023-03-12T16:16:25;40.10;;;22.45;;
71910;SDS011;59783;52.232;5.170;2023-03-12T16:18:50;40.93;;;23.93;;
71910;SDS011;59783;52.232;5.170;2023-03-12T16:21:16;37.43;;;21.90;;
71910;SDS011;59783;52.232;5.170;2023-03-12T16:23:41;40.97;;;21.57;;
71910;SDS011;59783;52.232;5.170;2023-03-12T16:26:06;42.43;;;21.23;;
71910;SDS011;59783;52.232;5.170;2023-03-12T16:28:32;41.80;;;22.27;;
71910;SDS011;59783;52.232;5.170;2023-03-12T16:30:57;42.42;;;22.95;;
71910;SDS011;59783;52.232;5.170;2023-03-12T16:33:23;45.67;;;21.17;;
71910;SDS011;59783;52.232;5.170;2023-03-12T16:35:48;41.33;;;21.10;;
71910;SDS011;59783;52.232;5.170;2023-03-12T16:38:14;47.90;;;22.33;;
71910;SDS011;59783;52.232;5.170;2023-03-12T16:40:41;43.67;;;21.52;;
71910;SDS011;59783;52.232;5.170;2023-03-12T16:43:10;37.17;;;21.13;;